Southland, Texas
Current Conditions -  °F | °C
As of 3:53 AM on Sunday 25 Jan 2015 (Local Time) from KLBB Reporting Station
Clear Clear  
Wind Chill: 27°   Ceiling: Unl
Heat Index: 34°   Visibility: 10mi
Dew Point: 28°   Wind: 9mph
Humidity: 79%   Direction: 340°NNW
Pressure: 30.09"   Gusts: NA
Location:  33.4457°N, 101.67°W
Report Text: KLBB 250953Z 34008KT 10SM CLR 01/M02 A3009 RMK AO2 SLP182 T00111022
Loading
Personal Weather Stations






























Interactive Weather Map New forecast layout! Learn more

10-Day Weather Forecast

Advertisements
Track Severe Weather on mobile